createdAt,value
2017-11-24T00:00:03.003Z,0
2017-11-24T00:01:11.094Z,0
2017-11-24T00:02:19.181Z,0
2017-11-24T00:03:27.271Z,0
2017-11-24T00:04:35.366Z,0
2017-11-24T00:05:43.453Z,0
2017-11-24T00:06:51.536Z,0
2017-11-24T00:07:59.626Z,0
2017-11-24T00:09:07.709Z,0
2017-11-24T00:10:15.799Z,0
2017-11-24T00:11:23.886Z,0
2017-11-24T00:12:31.972Z,0
2017-11-24T00:13:40.059Z,0
2017-11-24T00:14:48.149Z,0
2017-11-24T00:15:56.230Z,0
2017-11-24T00:17:04.317Z,0
2017-11-24T00:18:12.411Z,0
2017-11-24T00:19:20.491Z,0
2017-11-24T00:20:28.698Z,0
2017-11-24T00:21:36.783Z,0
2017-11-24T00:22:44.873Z,0
2017-11-24T00:23:52.959Z,0
2017-11-24T00:25:02.547Z,0
2017-11-24T00:26:09.134Z,0
2017-11-24T00:27:17.218Z,0
2017-11-24T00:28:25.968Z,0
2017-11-24T00:29:33.507Z,0
2017-11-24T00:30:41.575Z,0
2017-11-24T00:31:49.659Z,0
2017-11-24T00:32:57.722Z,0
2017-11-24T00:34:05.843Z,0
2017-11-24T00:35:13.915Z,0
2017-11-24T00:36:22.023Z,0
2017-11-24T00:37:30.082Z,0
2017-11-24T00:38:38.184Z,0
2017-11-24T00:39:46.271Z,0
2017-11-24T00:40:54.269Z,0
2017-11-24T00:42:02.348Z,0
2017-11-24T00:43:10.438Z,0
2017-11-24T00:44:18.523Z,0
2017-11-24T00:45:26.613Z,0
2017-11-24T00:46:34.697Z,0
2017-11-24T00:47:42.782Z,0
2017-11-24T00:48:50.869Z,0
2017-11-24T00:49:58.957Z,0
2017-11-24T00:51:07.062Z,0
2017-11-24T00:52:15.129Z,0
2017-11-24T00:53:23.224Z,0
2017-11-24T00:54:31.304Z,0
2017-11-24T00:55:39.396Z,0
2017-11-24T00:56:47.481Z,0
2017-11-24T00:57:55.567Z,0
2017-11-24T00:59:03.654Z,0
2017-11-24T01:00:11.744Z,0
2017-11-24T01:01:19.829Z,0
2017-11-24T01:02:27.916Z,0
2017-11-24T01:03:36.010Z,0
2017-11-24T01:04:44.094Z,0
2017-11-24T01:05:52.182Z,0
2017-11-24T01:07:00.281Z,0
2017-11-24T01:08:08.364Z,0
2017-11-24T01:09:16.443Z,0
2017-11-24T01:10:24.533Z,0
2017-11-24T01:11:32.620Z,0
2017-11-24T01:12:40.705Z,0
2017-11-24T01:13:48.791Z,0
2017-11-24T01:14:56.877Z,0
2017-11-24T01:16:04.963Z,0
2017-11-24T01:17:13.257Z,0
2017-11-24T01:18:21.139Z,0
2017-11-24T01:19:29.227Z,0
2017-11-24T01:20:37.314Z,0
2017-11-24T01:21:45.401Z,0
2017-11-24T01:22:53.487Z,0
2017-11-24T01:24:01.573Z,0
2017-11-24T01:25:09.659Z,0
2017-11-24T01:26:17.756Z,0
2017-11-24T01:27:25.834Z,0
2017-11-24T01:28:33.921Z,0
2017-11-24T01:29:42.009Z,0
2017-11-24T01:30:50.132Z,0
2017-11-24T01:31:58.198Z,0
2017-11-24T01:33:06.286Z,0
2017-11-24T01:34:14.385Z,0
2017-11-24T01:35:22.475Z,0
2017-11-24T01:36:30.558Z,0
2017-11-24T01:37:38.642Z,0
2017-11-24T01:38:46.728Z,0
2017-11-24T01:39:54.814Z,0
2017-11-24T01:41:02.907Z,0
2017-11-24T01:42:10.991Z,0
2017-11-24T01:43:19.079Z,0
2017-11-24T01:44:27.165Z,0
2017-11-24T01:45:35.270Z,0
2017-11-24T01:46:43.340Z,0
2017-11-24T01:47:51.427Z,0
2017-11-24T01:48:59.511Z,0
2017-11-24T01:50:07.601Z,0
2017-11-24T01:51:15.695Z,0
2017-11-24T01:52:23.782Z,0
2017-11-24T01:53:31.870Z,0
2017-11-24T01:54:39.957Z,0
2017-11-24T01:55:48.063Z,0
2017-11-24T01:56:56.134Z,0
2017-11-24T01:58:04.240Z,0
2017-11-24T01:59:12.303Z,0
2017-11-24T02:00:20.404Z,0
2017-11-24T02:01:28.481Z,0
2017-11-24T02:02:36.568Z,0
2017-11-24T02:03:44.655Z,0
2017-11-24T02:04:52.743Z,0
2017-11-24T02:06:00.835Z,0
2017-11-24T02:07:08.919Z,0
2017-11-24T02:08:17.006Z,0
2017-11-24T02:09:25.098Z,0
2017-11-24T02:10:33.188Z,0
2017-11-24T02:11:41.293Z,0
2017-11-24T02:12:49.381Z,0
2017-11-24T02:13:57.469Z,0
2017-11-24T02:15:05.562Z,0
2017-11-24T02:16:13.646Z,0
2017-11-24T02:17:21.731Z,0
2017-11-24T02:18:29.820Z,0
2017-11-24T02:19:37.908Z,0
2017-11-24T02:20:46.019Z,0
2017-11-24T02:21:54.091Z,0
2017-11-24T02:23:02.181Z,0
2017-11-24T02:24:10.475Z,0
2017-11-24T02:25:18.350Z,0
2017-11-24T02:26:26.438Z,0
2017-11-24T02:27:34.525Z,0
2017-11-24T02:28:42.635Z,0
2017-11-24T02:29:50.710Z,0
2017-11-24T02:30:58.799Z,0
2017-11-24T02:32:06.881Z,0
2017-11-24T02:33:14.976Z,0
2017-11-24T02:34:23.067Z,0
2017-11-24T02:35:31.151Z,0
2017-11-24T02:36:39.245Z,0
2017-11-24T02:37:47.336Z,0
2017-11-24T02:38:55.422Z,0
2017-11-24T02:40:03.506Z,0
2017-11-24T02:41:11.593Z,0
2017-11-24T02:42:19.678Z,0
2017-11-24T02:43:27.768Z,0
2017-11-24T02:44:35.867Z,0
2017-11-24T02:45:43.943Z,0
2017-11-24T02:46:52.046Z,0
2017-11-24T02:48:00.340Z,0
2017-11-24T02:49:08.435Z,0
2017-11-24T02:50:16.523Z,0
2017-11-24T02:51:24.610Z,0
2017-11-24T02:52:32.700Z,0
2017-11-24T02:53:40.797Z,0
2017-11-24T02:54:48.886Z,0
2017-11-24T02:55:56.973Z,0
2017-11-24T02:57:05.059Z,0
2017-11-24T02:58:13.150Z,0
2017-11-24T02:59:21.232Z,0
2017-11-24T03:00:29.338Z,0
2017-11-24T03:01:37.414Z,0
2017-11-24T03:02:45.504Z,0
2017-11-24T03:03:53.588Z,0
2017-11-24T03:05:01.665Z,0
2017-11-24T03:06:09.751Z,0
2017-11-24T03:07:17.839Z,0
2017-11-24T03:08:25.927Z,0
2017-11-24T03:09:34.022Z,0
2017-11-24T03:10:42.108Z,0
2017-11-24T03:11:50.216Z,0
2017-11-24T03:12:58.379Z,0
2017-11-24T03:14:06.367Z,0
2017-11-24T03:15:14.452Z,0
2017-11-24T03:16:22.539Z,0
2017-11-24T03:17:30.626Z,0
2017-11-24T03:18:38.713Z,0
2017-11-24T03:19:46.801Z,0
2017-11-24T03:20:54.902Z,0
2017-11-24T03:22:02.975Z,0
2017-11-24T03:23:11.068Z,0
2017-11-24T03:24:19.168Z,0
2017-11-24T03:25:27.236Z,0
2017-11-24T03:26:35.322Z,0
2017-11-24T03:27:43.424Z,0
2017-11-24T03:28:51.514Z,0
2017-11-24T03:29:59.618Z,0
2017-11-24T03:31:07.689Z,0
2017-11-24T03:32:15.773Z,0
2017-11-24T03:33:23.869Z,0
2017-11-24T03:34:31.948Z,0
2017-11-24T03:35:40.038Z,0
2017-11-24T03:36:48.132Z,0
2017-11-24T03:37:56.282Z,0
2017-11-24T03:39:04.301Z,0
2017-11-24T03:40:12.389Z,0
2017-11-24T03:41:20.475Z,0
2017-11-24T03:42:28.596Z,0
2017-11-24T03:43:36.648Z,0
2017-11-24T03:44:44.735Z,0
2017-11-24T03:45:52.826Z,0
2017-11-24T03:47:00.911Z,0
2017-11-24T03:48:09.001Z,0
2017-11-24T03:49:17.089Z,0
2017-11-24T03:50:25.180Z,0
2017-11-24T03:51:33.262Z,0
2017-11-24T03:52:41.350Z,0
2017-11-24T03:53:49.438Z,0
2017-11-24T03:54:57.523Z,0
2017-11-24T03:56:05.612Z,0
2017-11-24T03:57:13.698Z,0
2017-11-24T03:58:21.785Z,0
2017-11-24T03:59:29.872Z,0
2017-11-24T04:00:37.958Z,0
2017-11-24T04:01:46.047Z,0
2017-11-24T04:02:54.133Z,0
2017-11-24T04:04:02.222Z,0
2017-11-24T04:05:10.310Z,0
2017-11-24T04:06:18.398Z,0
2017-11-24T04:07:26.483Z,0
2017-11-24T04:08:34.573Z,0
2017-11-24T04:09:42.657Z,0
2017-11-24T04:10:50.753Z,0
2017-11-24T04:11:58.832Z,0
2017-11-24T04:13:06.951Z,0
2017-11-24T04:14:15.008Z,0
2017-11-24T04:15:23.098Z,0
2017-11-24T04:16:31.184Z,0
2017-11-24T04:17:39.283Z,0
2017-11-24T04:18:47.356Z,0
2017-11-24T04:19:55.449Z,0
2017-11-24T04:21:03.536Z,0
2017-11-24T04:22:11.629Z,0
2017-11-24T04:23:19.718Z,0
2017-11-24T04:24:27.805Z,0
2017-11-24T04:25:35.897Z,0
2017-11-24T04:26:43.975Z,0
2017-11-24T04:27:52.083Z,0
2017-11-24T04:29:00.170Z,0
2017-11-24T04:30:08.236Z,0
2017-11-24T04:31:16.347Z,0
2017-11-24T04:32:24.416Z,0
2017-11-24T04:33:32.499Z,0
2017-11-24T04:34:40.589Z,0
2017-11-24T04:35:48.675Z,0
2017-11-24T04:36:56.759Z,0
2017-11-24T04:38:04.847Z,0
2017-11-24T04:39:12.934Z,0
2017-11-24T04:40:21.039Z,0
2017-11-24T04:41:29.117Z,0
2017-11-24T04:42:37.196Z,0
2017-11-24T04:43:45.283Z,0
2017-11-24T04:44:53.369Z,0
2017-11-24T04:46:01.457Z,0
2017-11-24T04:47:09.549Z,0
2017-11-24T04:48:17.631Z,0
2017-11-24T04:49:25.719Z,0
2017-11-24T04:50:33.806Z,0
2017-11-24T04:51:41.892Z,0
2017-11-24T04:52:49.981Z,0
2017-11-24T04:53:58.072Z,0
2017-11-24T04:55:06.159Z,0
2017-11-24T04:56:14.242Z,0
2017-11-24T04:57:22.336Z,0
2017-11-24T04:58:30.416Z,0
2017-11-24T04:59:38.503Z,0
2017-11-24T05:00:46.596Z,0
2017-11-24T05:01:54.682Z,0
2017-11-24T05:03:02.770Z,0
2017-11-24T05:04:10.857Z,0
2017-11-24T05:05:18.978Z,0
2017-11-24T05:06:27.033Z,0
2017-11-24T05:07:35.154Z,0
2017-11-24T05:08:43.210Z,0
2017-11-24T05:09:51.297Z,0
2017-11-24T05:10:59.380Z,0
2017-11-24T05:12:07.468Z,0
2017-11-24T05:13:15.560Z,0
2017-11-24T05:14:23.642Z,0
2017-11-24T05:15:31.729Z,0
2017-11-24T05:16:39.814Z,0
2017-11-24T05:17:47.903Z,0
2017-11-24T05:18:55.989Z,0
2017-11-24T05:20:04.082Z,0
2017-11-24T05:21:12.186Z,0
2017-11-24T05:22:20.259Z,0
2017-11-24T05:23:28.340Z,0
2017-11-24T05:24:36.427Z,0
2017-11-24T05:25:44.536Z,0
2017-11-24T05:26:52.630Z,0
2017-11-24T05:28:00.706Z,0
2017-11-24T05:29:08.793Z,0
2017-11-24T05:30:16.880Z,0
2017-11-24T05:31:24.966Z,0
2017-11-24T05:32:33.056Z,0
2017-11-24T05:33:41.144Z,0
2017-11-24T05:34:49.227Z,0
2017-11-24T05:35:57.794Z,0
2017-11-24T05:37:05.401Z,0
2017-11-24T05:38:13.492Z,0
2017-11-24T05:39:21.573Z,0
2017-11-24T05:40:29.656Z,0
2017-11-24T05:41:37.744Z,0
2017-11-24T05:42:46.062Z,0
2017-11-24T05:43:53.919Z,0
2017-11-24T05:45:02.006Z,0
2017-11-24T05:46:10.089Z,0
2017-11-24T05:47:18.401Z,0
2017-11-24T05:48:26.284Z,0
2017-11-24T05:49:34.531Z,0
2017-11-24T05:50:42.439Z,0
2017-11-24T05:51:50.522Z,0
2017-11-24T05:52:58.610Z,0
2017-11-24T05:54:06.701Z,0
2017-11-24T05:55:14.780Z,0
2017-11-24T05:56:22.869Z,0
2017-11-24T05:57:30.957Z,0
2017-11-24T05:58:39.038Z,0
2017-11-24T05:59:47.147Z,0
2017-11-24T06:00:55.232Z,0
2017-11-24T06:02:03.324Z,0
2017-11-24T06:03:11.403Z,0
2017-11-24T06:04:19.859Z,0
2017-11-24T06:05:27.576Z,0
2017-11-24T06:06:35.665Z,0
2017-11-24T06:07:43.753Z,0
2017-11-24T06:08:51.836Z,0
2017-11-24T06:09:59.921Z,0
2017-11-24T06:11:08.011Z,0
2017-11-24T06:12:16.095Z,0
2017-11-24T06:13:24.185Z,0
2017-11-24T06:14:32.276Z,0
2017-11-24T06:15:40.355Z,0
2017-11-24T06:16:48.441Z,0
2017-11-24T06:17:56.540Z,0
2017-11-24T06:19:04.624Z,0
2017-11-24T06:20:12.709Z,0
2017-11-24T06:21:20.815Z,0
2017-11-24T06:22:28.892Z,0
2017-11-24T06:23:36.985Z,0
2017-11-24T06:24:45.094Z,0
2017-11-24T06:25:53.177Z,0
2017-11-24T06:27:01.260Z,0
2017-11-24T06:28:09.349Z,0
2017-11-24T06:29:17.436Z,0
2017-11-24T06:30:25.521Z,0
2017-11-24T06:31:33.617Z,0
2017-11-24T06:32:41.706Z,0
2017-11-24T06:33:49.791Z,0
2017-11-24T06:34:57.875Z,0
2017-11-24T06:36:05.963Z,0
2017-11-24T06:37:14.053Z,0
2017-11-24T06:38:22.138Z,0
2017-11-24T06:39:30.224Z,0
2017-11-24T06:40:38.315Z,0
2017-11-24T06:41:46.397Z,4
2017-11-24T06:42:54.480Z,4
2017-11-24T06:44:02.566Z,0
2017-11-24T06:45:10.652Z,0
2017-11-24T06:46:18.741Z,4
2017-11-24T06:47:26.825Z,4
2017-11-24T06:48:34.914Z,0
2017-11-24T06:49:43.000Z,0
2017-11-24T06:50:51.086Z,0
2017-11-24T06:51:59.175Z,0
2017-11-24T06:53:07.262Z,4
2017-11-24T06:54:15.342Z,4
2017-11-24T06:55:23.465Z,0
2017-11-24T06:56:31.518Z,0
2017-11-24T06:57:39.606Z,4
2017-11-24T06:58:48.653Z,4
2017-11-24T06:59:56.740Z,0
2017-11-24T07:01:04.824Z,4
2017-11-24T07:02:12.910Z,4
2017-11-24T07:03:20.998Z,0
2017-11-24T07:04:29.110Z,0
2017-11-24T07:05:37.183Z,0
2017-11-24T07:06:45.265Z,0
2017-11-24T07:07:53.350Z,4
2017-11-24T07:09:01.442Z,4
2017-11-24T07:10:09.810Z,4
2017-11-24T07:11:17.899Z,4
2017-11-24T07:12:25.982Z,4
2017-11-24T07:13:34.146Z,4
2017-11-24T07:14:42.164Z,8
2017-11-24T07:15:50.253Z,4
2017-11-24T07:16:58.345Z,4
2017-11-24T07:18:06.431Z,8
2017-11-24T07:19:14.518Z,4
2017-11-24T07:20:22.606Z,4
2017-11-24T07:21:30.693Z,4
2017-11-24T07:22:38.779Z,4
2017-11-24T07:23:46.867Z,4
2017-11-24T07:24:54.968Z,4
2017-11-24T07:26:03.034Z,8
2017-11-24T07:27:11.121Z,8
2017-11-24T07:28:19.230Z,8
2017-11-24T07:29:27.316Z,8
2017-11-24T07:30:35.399Z,4
2017-11-24T07:31:43.492Z,8
2017-11-24T07:32:51.587Z,8
2017-11-24T07:33:59.669Z,4
2017-11-24T07:35:07.758Z,8
2017-11-24T07:36:15.844Z,8
2017-11-24T07:37:23.932Z,8
2017-11-24T07:38:32.036Z,8
2017-11-24T07:39:40.105Z,12
2017-11-24T07:40:48.192Z,12
2017-11-24T07:41:56.277Z,8
2017-11-24T07:43:04.363Z,12
2017-11-24T07:44:12.448Z,12
2017-11-24T07:45:20.556Z,16
2017-11-24T07:46:28.625Z,16
2017-11-24T07:47:36.722Z,16
2017-11-24T07:48:44.804Z,12
2017-11-24T07:49:52.894Z,12
2017-11-24T07:51:00.976Z,12
2017-11-24T07:52:09.065Z,12
2017-11-24T07:53:17.158Z,12
2017-11-24T07:54:25.240Z,8
2017-11-24T07:55:33.325Z,8
2017-11-24T07:56:41.413Z,12
2017-11-24T07:57:49.503Z,8
2017-11-24T07:58:57.584Z,12
2017-11-24T08:00:05.712Z,12
2017-11-24T08:01:13.758Z,12
2017-11-24T08:02:21.845Z,12
2017-11-24T08:03:29.931Z,16
2017-11-24T08:04:38.022Z,16
2017-11-24T08:05:46.108Z,16
2017-11-24T08:06:54.190Z,16
2017-11-24T08:08:02.279Z,20
2017-11-24T08:09:10.361Z,16
2017-11-24T08:10:18.448Z,16
2017-11-24T08:11:26.543Z,20
2017-11-24T08:12:34.639Z,20
2017-11-24T08:13:42.724Z,24
2017-11-24T08:14:50.814Z,28
2017-11-24T08:15:58.898Z,24
2017-11-24T08:17:06.995Z,16
2017-11-24T08:18:15.076Z,16
2017-11-24T08:19:23.187Z,16
2017-11-24T08:20:31.272Z,16
2017-11-24T08:21:39.358Z,16
2017-11-24T08:22:47.447Z,12
2017-11-24T08:23:55.532Z,16
2017-11-24T08:25:03.620Z,16
2017-11-24T08:26:11.705Z,20
2017-11-24T08:27:19.792Z,20
2017-11-24T08:28:27.880Z,20
2017-11-24T08:29:35.965Z,20
2017-11-24T08:30:44.049Z,16
2017-11-24T08:31:52.180Z,20
2017-11-24T08:33:00.238Z,20
2017-11-24T08:34:08.313Z,20
2017-11-24T08:35:16.402Z,20
2017-11-24T08:36:24.497Z,16
2017-11-24T08:37:32.571Z,20
2017-11-24T08:38:40.663Z,16
2017-11-24T08:39:48.751Z,20
2017-11-24T08:40:56.844Z,20
2017-11-24T08:42:04.932Z,20
2017-11-24T08:43:13.016Z,16
2017-11-24T08:44:21.105Z,16
2017-11-24T08:45:29.189Z,20
2017-11-24T08:46:37.362Z,16
2017-11-24T08:47:45.365Z,20
2017-11-24T08:48:53.446Z,20
2017-11-24T08:50:01.534Z,20
2017-11-24T08:51:09.622Z,20
2017-11-24T08:52:17.706Z,20
2017-11-24T08:53:25.794Z,20
2017-11-24T08:54:33.884Z,20
2017-11-24T08:55:41.976Z,24
2017-11-24T08:56:50.052Z,24
2017-11-24T08:57:58.140Z,24
2017-11-24T08:59:06.226Z,20
2017-11-24T09:00:14.311Z,20
2017-11-24T09:01:22.398Z,20
2017-11-24T09:02:30.488Z,20
2017-11-24T09:03:38.571Z,20
2017-11-24T09:04:46.663Z,16
2017-11-24T09:05:54.745Z,20
2017-11-24T09:07:02.830Z,16
2017-11-24T09:08:10.921Z,16
2017-11-24T09:09:19.005Z,16
2017-11-24T09:10:27.092Z,16
2017-11-24T09:11:35.183Z,16
2017-11-24T09:12:43.265Z,16
2017-11-24T09:13:51.353Z,16
2017-11-24T09:14:59.437Z,16
2017-11-24T09:16:07.525Z,20
2017-11-24T09:17:15.630Z,24
2017-11-24T09:18:23.727Z,24
2017-11-24T09:19:31.793Z,16
2017-11-24T09:20:39.872Z,20
2017-11-24T09:21:47.957Z,20
2017-11-24T09:22:56.050Z,24
2017-11-24T09:24:04.135Z,20
2017-11-24T09:25:12.234Z,24
2017-11-24T09:26:20.298Z,20
2017-11-24T09:27:28.386Z,24
2017-11-24T09:28:36.480Z,24
2017-11-24T09:29:44.561Z,24
2017-11-24T09:30:52.648Z,24
2017-11-24T09:32:00.741Z,28
2017-11-24T09:33:08.821Z,28
2017-11-24T09:34:16.907Z,28
2017-11-24T09:35:24.997Z,28
2017-11-24T09:36:33.084Z,32
2017-11-24T09:37:41.166Z,32
2017-11-24T09:38:49.261Z,36
2017-11-24T09:39:57.350Z,36
2017-11-24T09:41:05.436Z,36
2017-11-24T09:42:13.524Z,32
2017-11-24T09:43:21.606Z,32
2017-11-24T09:44:29.690Z,28
2017-11-24T09:45:37.821Z,28
2017-11-24T09:46:45.868Z,28
2017-11-24T09:47:53.951Z,32
2017-11-24T09:49:02.044Z,32
2017-11-24T09:50:10.127Z,32
2017-11-24T09:51:18.212Z,32
2017-11-24T09:52:26.317Z,32
2017-11-24T09:53:34.382Z,32
2017-11-24T09:54:42.478Z,24
2017-11-24T09:55:50.571Z,32
2017-11-24T09:56:58.684Z,32
2017-11-24T09:58:06.750Z,32
2017-11-24T09:59:14.836Z,32
2017-11-24T10:00:22.931Z,32
2017-11-24T10:01:31.050Z,32
2017-11-24T10:02:39.105Z,32
2017-11-24T10:03:47.212Z,36
2017-11-24T10:04:55.277Z,32
2017-11-24T10:06:03.386Z,36
2017-11-24T10:07:11.451Z,36
2017-11-24T10:08:19.540Z,36
2017-11-24T10:09:27.623Z,24
2017-11-24T10:10:35.710Z,32
2017-11-24T10:11:43.803Z,32
2017-11-24T10:12:51.909Z,28
2017-11-24T10:13:59.983Z,28
2017-11-24T10:15:08.078Z,28
2017-11-24T10:16:16.165Z,32
2017-11-24T10:17:24.252Z,36
2017-11-24T10:18:32.341Z,36
2017-11-24T10:19:40.423Z,32
2017-11-24T10:20:48.514Z,36
2017-11-24T10:21:56.602Z,36
2017-11-24T10:23:04.689Z,32
2017-11-24T10:24:12.775Z,32
2017-11-24T10:25:20.863Z,32
2017-11-24T10:26:28.957Z,32
2017-11-24T10:27:37.141Z,32
2017-11-24T10:28:45.129Z,32
2017-11-24T10:29:53.233Z,28
2017-11-24T10:31:01.310Z,28
2017-11-24T10:32:09.406Z,28
2017-11-24T10:33:17.484Z,28
2017-11-24T10:34:25.593Z,28
2017-11-24T10:35:33.666Z,28
2017-11-24T10:36:41.762Z,28
2017-11-24T10:37:49.847Z,24
2017-11-24T10:38:57.935Z,28
2017-11-24T10:40:06.021Z,24
2017-11-24T10:41:14.111Z,28
2017-11-24T10:42:22.191Z,28
2017-11-24T10:43:30.281Z,32
2017-11-24T10:44:38.573Z,28
2017-11-24T10:45:46.453Z,32
2017-11-24T10:46:54.539Z,36
2017-11-24T10:48:02.625Z,32
2017-11-24T10:49:10.710Z,32
2017-11-24T10:50:19.209Z,32
2017-11-24T10:51:27.300Z,28
2017-11-24T10:52:35.398Z,28
2017-11-24T10:53:43.491Z,28
2017-11-24T10:54:51.582Z,28
2017-11-24T10:55:59.662Z,28
2017-11-24T10:57:07.750Z,32
2017-11-24T10:58:15.833Z,32
2017-11-24T10:59:23.920Z,32
2017-11-24T11:00:32.009Z,28
2017-11-24T11:01:40.096Z,24
2017-11-24T11:02:48.185Z,32
2017-11-24T11:03:56.268Z,32
2017-11-24T11:05:04.360Z,36
2017-11-24T11:06:12.478Z,32
2017-11-24T11:07:20.536Z,32
2017-11-24T11:08:28.616Z,28
2017-11-24T11:09:36.710Z,32
2017-11-24T11:10:44.808Z,32
2017-11-24T11:11:52.882Z,32
2017-11-24T11:13:00.969Z,32
2017-11-24T11:14:09.053Z,28
2017-11-24T11:15:17.149Z,32
2017-11-24T11:16:25.233Z,28
2017-11-24T11:17:33.341Z,32
2017-11-24T11:18:41.427Z,28
2017-11-24T11:19:49.525Z,28
2017-11-24T11:20:57.609Z,28
2017-11-24T11:22:05.705Z,28
2017-11-24T11:23:13.781Z,32
2017-11-24T11:24:21.885Z,28
2017-11-24T11:25:29.953Z,32
2017-11-24T11:26:38.040Z,32
2017-11-24T11:27:46.127Z,28
2017-11-24T11:28:54.215Z,28
2017-11-24T11:30:02.300Z,28
2017-11-24T11:31:10.385Z,32
2017-11-24T11:32:18.468Z,28
2017-11-24T11:33:26.558Z,32
2017-11-24T11:34:34.650Z,32
2017-11-24T11:35:42.736Z,36
2017-11-24T11:36:50.821Z,36
2017-11-24T11:37:58.908Z,32
2017-11-24T11:39:07.007Z,32
2017-11-24T11:40:15.083Z,32
2017-11-24T11:41:23.186Z,32
2017-11-24T11:42:31.252Z,28
2017-11-24T11:43:39.339Z,28
2017-11-24T11:44:47.442Z,32
2017-11-24T11:45:55.512Z,36
2017-11-24T11:47:03.595Z,36
2017-11-24T11:48:11.696Z,36
2017-11-24T11:49:19.944Z,36
2017-11-24T11:50:28.052Z,32
2017-11-24T11:51:36.131Z,32
2017-11-24T11:52:44.221Z,32
2017-11-24T11:53:52.311Z,32
2017-11-24T11:55:00.393Z,32
2017-11-24T11:56:08.477Z,32
2017-11-24T11:57:16.569Z,32
2017-11-24T11:58:24.655Z,32
2017-11-24T11:59:32.751Z,32
2017-11-24T12:00:40.837Z,32
2017-11-24T12:01:48.922Z,32
2017-11-24T12:02:57.014Z,32
2017-11-24T12:04:05.094Z,28
2017-11-24T12:05:13.182Z,28
2017-11-24T12:06:21.265Z,32
2017-11-24T12:07:29.359Z,32
2017-11-24T12:08:37.438Z,36
2017-11-24T12:09:45.525Z,36
2017-11-24T12:10:53.611Z,32
2017-11-24T12:12:01.693Z,24
2017-11-24T12:13:09.788Z,32
2017-11-24T12:14:17.864Z,36
2017-11-24T12:15:25.951Z,28
2017-11-24T12:16:34.038Z,24
2017-11-24T12:17:42.123Z,24
2017-11-24T12:18:50.220Z,24
2017-11-24T12:19:58.322Z,28
2017-11-24T12:21:06.409Z,28
2017-11-24T12:22:14.503Z,32
2017-11-24T12:23:22.589Z,36
2017-11-24T12:24:30.674Z,32
2017-11-24T12:25:38.760Z,32
2017-11-24T12:26:46.845Z,32
2017-11-24T12:27:54.931Z,32
2017-11-24T12:29:03.026Z,32
2017-11-24T12:30:11.106Z,28
2017-11-24T12:31:19.189Z,32
2017-11-24T12:32:27.280Z,24
2017-11-24T12:33:35.366Z,24
2017-11-24T12:34:43.446Z,20
2017-11-24T12:35:51.530Z,24
2017-11-24T12:36:59.616Z,20
2017-11-24T12:38:07.701Z,20
2017-11-24T12:39:15.790Z,16
2017-11-24T12:40:23.885Z,20
2017-11-24T12:41:31.969Z,24
2017-11-24T12:42:40.074Z,20
2017-11-24T12:43:48.141Z,24
2017-11-24T12:44:56.229Z,24
2017-11-24T12:46:04.324Z,24
2017-11-24T12:47:12.467Z,28
2017-11-24T12:48:20.575Z,28
2017-11-24T12:49:28.667Z,24
2017-11-24T12:50:36.752Z,24
2017-11-24T12:51:44.840Z,28
2017-11-24T12:52:52.927Z,28
2017-11-24T12:54:01.012Z,28
2017-11-24T12:55:09.100Z,36
2017-11-24T12:56:17.199Z,36
2017-11-24T12:57:25.267Z,28
2017-11-24T12:58:33.353Z,24
2017-11-24T12:59:41.441Z,24
2017-11-24T13:00:49.524Z,28
2017-11-24T13:01:57.609Z,24
2017-11-24T13:03:05.707Z,24
2017-11-24T13:04:13.791Z,24
2017-11-24T13:05:21.874Z,24
2017-11-24T13:06:29.959Z,24
2017-11-24T13:07:38.051Z,24
2017-11-24T13:08:46.135Z,24
2017-11-24T13:09:54.215Z,24
2017-11-24T13:11:02.321Z,20
2017-11-24T13:12:10.389Z,20
2017-11-24T13:13:18.470Z,24
2017-11-24T13:14:26.557Z,20
2017-11-24T13:15:34.641Z,20
2017-11-24T13:16:42.728Z,24
2017-11-24T13:17:50.823Z,20
2017-11-24T13:18:58.901Z,20
2017-11-24T13:20:07.002Z,20
2017-11-24T13:21:15.070Z,20
2017-11-24T13:22:23.157Z,20
2017-11-24T13:23:31.261Z,16
2017-11-24T13:24:39.349Z,16
2017-11-24T13:25:47.435Z,16
2017-11-24T13:26:55.518Z,16
2017-11-24T13:28:03.604Z,16
2017-11-24T13:29:11.692Z,16
2017-11-24T13:30:19.774Z,12
2017-11-24T13:31:27.861Z,16
2017-11-24T13:32:35.945Z,16
2017-11-24T13:33:44.031Z,16
2017-11-24T13:34:52.117Z,12
2017-11-24T13:36:00.203Z,12
2017-11-24T13:37:08.291Z,12
2017-11-24T13:38:16.396Z,16
2017-11-24T13:39:24.634Z,12
2017-11-24T13:40:32.722Z,16
2017-11-24T13:41:40.805Z,16
2017-11-24T13:42:48.893Z,12
2017-11-24T13:43:56.978Z,16
2017-11-24T13:45:05.065Z,12
2017-11-24T13:46:13.149Z,12
2017-11-24T13:47:21.234Z,12
2017-11-24T13:48:29.328Z,12
2017-11-24T13:49:37.405Z,12
2017-11-24T13:50:45.560Z,12
2017-11-24T13:51:53.596Z,12
2017-11-24T13:53:01.685Z,12
2017-11-24T13:54:09.769Z,12
2017-11-24T13:55:17.855Z,12
2017-11-24T13:56:25.938Z,8
2017-11-24T13:57:34.036Z,12
2017-11-24T13:58:42.109Z,12
2017-11-24T13:59:50.201Z,8
2017-11-24T14:00:58.291Z,8
2017-11-24T14:02:06.365Z,12
2017-11-24T14:03:14.450Z,12
2017-11-24T14:04:22.534Z,8
2017-11-24T14:05:30.621Z,8
2017-11-24T14:06:38.707Z,8
2017-11-24T14:07:46.791Z,12
2017-11-24T14:08:54.876Z,8
2017-11-24T14:10:02.959Z,12
2017-11-24T14:11:11.061Z,8
2017-11-24T14:12:19.139Z,8
2017-11-24T14:13:27.219Z,8
2017-11-24T14:14:35.321Z,8
2017-11-24T14:15:43.388Z,8
2017-11-24T14:16:51.495Z,8
2017-11-24T14:17:59.558Z,8
2017-11-24T14:19:07.651Z,8
2017-11-24T14:20:15.739Z,8
2017-11-24T14:21:23.830Z,8
2017-11-24T14:22:31.924Z,8
2017-11-24T14:23:39.994Z,8
2017-11-24T14:24:48.093Z,8
2017-11-24T14:25:56.169Z,8
2017-11-24T14:27:04.256Z,8
2017-11-24T14:28:12.354Z,8
2017-11-24T14:29:20.440Z,8
2017-11-24T14:30:28.523Z,8
2017-11-24T14:31:36.610Z,8
2017-11-24T14:32:44.698Z,4
2017-11-24T14:33:52.782Z,4
2017-11-24T14:35:00.886Z,4
2017-11-24T14:36:08.951Z,4
2017-11-24T14:37:17.036Z,4
2017-11-24T14:38:25.124Z,8
2017-11-24T14:39:33.208Z,8
2017-11-24T14:40:41.298Z,4
2017-11-24T14:41:49.378Z,4
2017-11-24T14:42:57.492Z,4
2017-11-24T14:44:05.548Z,4
2017-11-24T14:45:13.634Z,4
2017-11-24T14:46:21.715Z,4
2017-11-24T14:47:29.801Z,0
2017-11-24T14:48:37.890Z,4
2017-11-24T14:49:45.974Z,4
2017-11-24T14:50:54.057Z,4
2017-11-24T14:52:02.149Z,4
2017-11-24T14:53:10.231Z,4
2017-11-24T14:54:18.329Z,4
2017-11-24T14:55:26.408Z,4
2017-11-24T14:56:34.496Z,4
2017-11-24T14:57:42.581Z,4
2017-11-24T14:58:50.665Z,4
2017-11-24T14:59:58.837Z,4
2017-11-24T15:01:06.838Z,0
2017-11-24T15:02:14.919Z,0
2017-11-24T15:03:23.006Z,0
2017-11-24T15:04:31.097Z,4
2017-11-24T15:05:39.175Z,4
2017-11-24T15:06:47.261Z,4
2017-11-24T15:07:55.346Z,4
2017-11-24T15:09:03.488Z,0
2017-11-24T15:10:11.515Z,0
2017-11-24T15:11:19.601Z,4
2017-11-24T15:12:27.690Z,0
2017-11-24T15:13:35.769Z,0
2017-11-24T15:14:43.854Z,0
2017-11-24T15:15:51.951Z,0
2017-11-24T15:17:00.031Z,0
2017-11-24T15:18:08.110Z,4
2017-11-24T15:19:16.216Z,4
2017-11-24T15:20:24.298Z,0
2017-11-24T15:21:32.365Z,4
2017-11-24T15:22:40.456Z,4
2017-11-24T15:23:48.533Z,4
2017-11-24T15:24:56.620Z,4
2017-11-24T15:26:04.705Z,4
2017-11-24T15:27:12.788Z,0
2017-11-24T15:28:20.874Z,0
2017-11-24T15:29:28.958Z,0
2017-11-24T15:30:37.064Z,0
2017-11-24T15:31:45.132Z,0
2017-11-24T15:32:53.218Z,0
2017-11-24T15:34:01.298Z,0
2017-11-24T15:35:09.385Z,0
2017-11-24T15:36:17.469Z,0
2017-11-24T15:37:25.555Z,0
2017-11-24T15:38:33.642Z,0
2017-11-24T15:39:41.724Z,0
2017-11-24T15:40:49.810Z,0
2017-11-24T15:41:57.896Z,0
2017-11-24T15:43:05.979Z,0
2017-11-24T15:44:14.081Z,0
2017-11-24T15:45:22.148Z,0
2017-11-24T15:46:30.237Z,0
2017-11-24T15:47:38.327Z,0
2017-11-24T15:48:46.405Z,0
2017-11-24T15:49:54.486Z,0
2017-11-24T15:51:02.574Z,0
2017-11-24T15:52:10.684Z,0
2017-11-24T15:53:18.741Z,0
2017-11-24T15:54:26.825Z,0
2017-11-24T15:55:34.908Z,0
2017-11-24T15:56:42.996Z,0
2017-11-24T15:57:51.084Z,0
2017-11-24T15:58:59.180Z,0
2017-11-24T16:00:07.251Z,0
2017-11-24T16:01:15.335Z,0
2017-11-24T16:02:23.432Z,0
2017-11-24T16:03:31.506Z,0
2017-11-24T16:04:39.591Z,0
2017-11-24T16:05:47.677Z,0
2017-11-24T16:06:55.765Z,0
2017-11-24T16:08:03.849Z,0
2017-11-24T16:09:11.941Z,0
2017-11-24T16:10:20.024Z,0
2017-11-24T16:11:28.109Z,0
2017-11-24T16:12:36.590Z,0
2017-11-24T16:13:44.287Z,0
2017-11-24T16:14:52.364Z,0
2017-11-24T16:16:00.449Z,0
2017-11-24T16:17:08.534Z,0
2017-11-24T16:18:16.627Z,0
2017-11-24T16:19:24.703Z,0
2017-11-24T16:20:32.788Z,0
2017-11-24T16:21:40.882Z,0
2017-11-24T16:22:48.967Z,0
2017-11-24T16:23:57.053Z,0
2017-11-24T16:25:05.137Z,0
2017-11-24T16:26:13.229Z,0
2017-11-24T16:27:21.318Z,0
2017-11-24T16:28:29.397Z,0
2017-11-24T16:29:37.482Z,0
2017-11-24T16:30:45.570Z,0
2017-11-24T16:31:53.652Z,0